createdAt,value
2022-11-01T00:01:59.443Z,10.70
2022-11-01T00:04:27.879Z,10.80
2022-11-01T00:54:11.380Z,11.10
2022-11-01T01:01:36.798Z,11.10
2022-11-01T01:04:05.180Z,11.10
2022-11-01T01:18:57.123Z,11.00
2022-11-01T01:28:54.637Z,11.10
2022-11-01T01:31:22.639Z,11.10
2022-11-01T01:49:01.444Z,11.20
2022-11-01T01:56:32.654Z,11.00
2022-11-01T01:59:04.628Z,11.00
2022-11-01T02:01:33.711Z,11.00
2022-11-01T02:09:02.492Z,10.90
2022-11-01T02:11:32.069Z,10.80
2022-11-01T02:16:48.510Z,10.80
2022-11-01T02:19:51.095Z,10.80
2022-11-01T02:22:24.876Z,10.80
2022-11-01T02:25:11.092Z,10.70
2022-11-01T02:27:56.654Z,10.70
2022-11-01T02:30:25.868Z,10.70
2022-11-01T02:33:13.730Z,10.60
2022-11-01T02:35:54.853Z,8.70
2022-11-01T02:38:27.751Z,10.50
2022-11-01T02:41:04.475Z,10.50
2022-11-01T02:43:39.534Z,10.60
2022-11-01T02:46:23.284Z,10.50
2022-11-01T02:51:24.794Z,10.40
2022-11-01T02:53:52.920Z,10.40
2022-11-01T02:58:53.577Z,10.50
2022-11-01T03:01:26.318Z,10.50
2022-11-01T03:03:58.648Z,10.50
2022-11-01T03:06:32.415Z,10.50
2022-11-01T03:09:03.586Z,10.50
2022-11-01T03:11:37.676Z,10.50
2022-11-01T03:14:20.723Z,10.60
2022-11-01T03:16:55.175Z,10.70
2022-11-01T03:19:37.960Z,10.80
2022-11-01T03:22:11.587Z,10.80
2022-11-01T03:24:46.641Z,10.90
2022-11-01T03:27:21.337Z,11.00
2022-11-01T03:29:56.968Z,11.00
2022-11-01T03:32:28.556Z,11.00
2022-11-01T03:35:00.695Z,10.90
2022-11-01T03:37:30.610Z,10.90
2022-11-01T03:40:02.828Z,10.90
2022-11-01T03:45:03.981Z,10.90
2022-11-01T03:47:31.900Z,10.90
2022-11-01T03:50:18.417Z,10.90
2022-11-01T04:07:43.999Z,10.60
2022-11-01T04:15:28.401Z,10.40
2022-11-01T04:28:17.373Z,10.10
2022-11-01T04:35:42.438Z,10.00
2022-11-01T04:38:12.297Z,10.00
2022-11-01T04:48:08.797Z,9.90
2022-11-01T05:05:31.910Z,9.70
2022-11-01T05:17:59.260Z,9.50
2022-11-01T05:23:00.005Z,9.40
2022-11-01T05:25:30.554Z,9.40
2022-11-01T05:35:30.101Z,9.50
2022-11-01T05:40:26.794Z,9.50
2022-11-01T05:45:23.284Z,9.60
2022-11-01T05:47:52.714Z,9.60
2022-11-01T06:02:48.249Z,9.70
2022-11-01T06:07:46.384Z,9.80
2022-11-01T06:12:42.951Z,9.80
2022-11-01T06:15:11.875Z,9.80
2022-11-01T06:17:39.873Z,9.80
2022-11-01T06:20:08.752Z,9.80
2022-11-01T06:25:08.243Z,9.90
2022-11-01T06:35:01.883Z,10.00
2022-11-01T06:44:56.640Z,10.40
2022-11-01T06:49:53.165Z,10.50
2022-11-01T06:54:49.511Z,10.60
2022-11-01T06:59:57.364Z,10.70
2022-11-01T07:07:28.684Z,11.00
2022-11-01T07:32:18.750Z,12.10
2022-11-01T07:39:43.938Z,12.50
2022-11-01T07:52:11.574Z,13.20
2022-11-01T07:54:39.768Z,13.10
2022-11-01T08:04:37.934Z,13.80
2022-11-01T08:14:31.377Z,14.70
2022-11-01T08:31:54.508Z,15.60
2022-11-01T08:34:22.646Z,15.60
2022-11-01T08:59:12.015Z,15.40
2022-11-01T09:06:37.562Z,18.00
2022-11-01T09:11:34.777Z,15.40
2022-11-01T09:14:04.540Z,15.50
2022-11-01T09:19:02.629Z,15.60
2022-11-01T09:21:32.047Z,15.60
2022-11-01T09:26:29.350Z,15.70
2022-11-01T09:31:29.954Z,15.60
2022-11-01T09:33:58.981Z,15.60
2022-11-01T09:36:28.928Z,15.60
2022-11-01T09:38:59.457Z,15.60
2022-11-01T09:41:33.960Z,15.70
2022-11-01T09:44:04.676Z,15.70
2022-11-01T09:46:48.700Z,15.70
2022-11-01T09:49:23.206Z,15.80
2022-11-01T09:54:24.869Z,15.90
2022-11-01T09:57:02.650Z,15.90
2022-11-01T09:59:36.192Z,17.20
2022-11-01T10:02:30.968Z,16.10
2022-11-01T10:05:28.522Z,16.20
2022-11-01T10:08:02.992Z,16.30
2022-11-01T10:10:40.881Z,16.40
2022-11-01T10:13:20.310Z,16.40
2022-11-01T10:15:55.860Z,16.40
2022-11-01T10:18:30.419Z,16.40
2022-11-01T10:21:01.028Z,16.40
2022-11-01T10:23:38.181Z,16.40
2022-11-01T10:26:07.905Z,16.40
2022-11-01T10:28:47.539Z,16.50
2022-11-01T10:31:22.222Z,16.70
2022-11-01T10:33:58.841Z,16.70
2022-11-01T10:36:32.158Z,16.80
2022-11-01T10:42:11.103Z,17.00
2022-11-01T10:44:42.611Z,17.00
2022-11-01T10:47:22.404Z,17.00
2022-11-01T10:50:06.088Z,17.40
2022-11-01T10:52:43.583Z,17.30
2022-11-01T10:55:17.803Z,17.40
2022-11-01T10:58:00.944Z,17.40
2022-11-01T11:03:21.391Z,17.50
2022-11-01T11:05:54.011Z,17.50
2022-11-01T11:08:25.323Z,17.50
2022-11-01T11:10:54.267Z,17.50
2022-11-01T11:13:25.347Z,17.50
2022-11-01T11:15:56.275Z,17.50
2022-11-01T11:18:26.628Z,17.50
2022-11-01T11:21:02.985Z,17.50
2022-11-01T11:23:34.666Z,17.50
2022-11-01T11:28:34.183Z,17.50
2022-11-01T11:31:13.504Z,17.50
2022-11-01T11:33:50.405Z,17.50
2022-11-01T11:36:29.531Z,17.60
2022-11-01T11:38:57.894Z,17.60
2022-11-01T11:41:31.604Z,17.60
2022-11-01T11:49:01.347Z,17.80
2022-11-01T11:52:11.340Z,17.80
2022-11-01T11:54:56.713Z,17.90
2022-11-01T11:57:29.992Z,17.90
2022-11-01T12:00:10.434Z,18.20
2022-11-01T12:02:42.775Z,18.40
2022-11-01T12:05:18.480Z,18.40
2022-11-01T12:07:52.610Z,18.30
2022-11-01T12:10:34.394Z,18.10
2022-11-01T12:13:04.914Z,18.10
2022-11-01T12:15:38.311Z,18.20
2022-11-01T12:18:16.118Z,18.20
2022-11-01T12:23:22.855Z,18.00
2022-11-01T12:25:52.251Z,18.00
2022-11-01T12:28:27.987Z,17.90
2022-11-01T12:31:02.010Z,17.90
2022-11-01T12:33:34.947Z,18.00
2022-11-01T12:38:43.174Z,17.80
2022-11-01T12:41:22.083Z,17.70
2022-11-01T12:44:07.121Z,17.70
2022-11-01T12:46:40.418Z,17.50
2022-11-01T12:49:16.967Z,17.40
2022-11-01T12:51:51.460Z,17.30
2022-11-01T12:54:27.365Z,17.20
2022-11-01T12:59:29.343Z,17.20
2022-11-01T13:02:05.907Z,17.10
2022-11-01T13:04:56.475Z,17.10
2022-11-01T13:07:34.208Z,17.10
2022-11-01T13:10:12.012Z,17.00
2022-11-01T13:12:49.270Z,17.00
2022-11-01T13:18:24.993Z,16.90
2022-11-01T13:21:00.945Z,16.90
2022-11-01T13:23:35.261Z,16.90
2022-11-01T13:26:24.533Z,16.90
2022-11-01T13:29:17.739Z,16.90
2022-11-01T13:31:57.835Z,16.80
2022-11-01T13:34:37.846Z,16.80
2022-11-01T13:37:14.925Z,16.70
2022-11-01T13:39:56.506Z,16.80
2022-11-01T13:42:32.563Z,16.70
2022-11-01T13:45:24.802Z,16.70
2022-11-01T13:47:58.151Z,16.80
2022-11-01T13:50:58.169Z,16.80
2022-11-01T13:53:32.948Z,16.80
2022-11-01T13:56:05.725Z,16.80
2022-11-01T14:01:32.172Z,16.70
2022-11-01T14:04:41.551Z,16.70
2022-11-01T14:07:19.463Z,16.70
2022-11-01T14:12:36.612Z,16.70
2022-11-01T14:15:26.555Z,16.60
2022-11-01T14:18:09.791Z,16.60
2022-11-01T14:20:46.657Z,16.60
2022-11-01T14:23:53.167Z,16.60
2022-11-01T14:26:45.904Z,16.70
2022-11-01T14:29:14.809Z,16.70
2022-11-01T14:31:49.648Z,16.70
2022-11-01T14:34:26.618Z,16.70
2022-11-01T14:37:00.496Z,16.70
2022-11-01T14:39:36.175Z,16.60
2022-11-01T14:42:30.227Z,16.60
2022-11-01T14:45:02.477Z,16.50
2022-11-01T14:48:01.436Z,16.50
2022-11-01T14:53:32.541Z,16.90
2022-11-01T14:56:13.573Z,16.40
2022-11-01T15:01:14.397Z,16.40
2022-11-01T15:03:53.703Z,16.40
2022-11-01T15:06:25.953Z,16.40
2022-11-01T15:08:58.728Z,16.40
2022-11-01T15:11:31.609Z,16.30
2022-11-01T15:16:30.231Z,16.20
2022-11-01T15:19:44.728Z,16.20
2022-11-01T15:22:18.137Z,16.10
2022-11-01T15:24:48.613Z,16.20
2022-11-01T15:27:20.599Z,16.20
2022-11-01T15:29:54.299Z,16.20
2022-11-01T15:32:25.804Z,16.10
2022-11-01T15:34:57.386Z,16.40
2022-11-01T15:37:28.351Z,16.00
2022-11-01T15:42:31.605Z,16.00
2022-11-01T15:47:30.139Z,16.00
2022-11-01T15:50:05.538Z,15.90
2022-11-01T15:52:35.929Z,15.90
2022-11-01T15:55:08.445Z,15.90
2022-11-01T15:57:45.380Z,15.80
2022-11-01T16:00:22.460Z,15.80
2022-11-01T16:02:57.271Z,15.80
2022-11-01T16:05:30.927Z,15.80
2022-11-01T16:10:30.847Z,15.70
2022-11-01T16:13:01.212Z,15.70
2022-11-01T16:15:33.066Z,15.70
2022-11-01T16:20:48.208Z,15.70
2022-11-01T16:26:07.326Z,15.60
2022-11-01T16:28:43.439Z,15.60
2022-11-01T16:31:24.169Z,15.60
2022-11-01T16:36:42.930Z,15.60
2022-11-01T16:39:36.597Z,15.60
2022-11-01T16:47:04.304Z,15.60
2022-11-01T16:52:04.294Z,15.60
2022-11-01T16:59:37.056Z,15.50
2022-11-01T17:02:18.147Z,15.50
2022-11-01T17:05:17.552Z,15.50
2022-11-01T17:10:19.351Z,15.50
2022-11-01T17:15:36.492Z,15.50
2022-11-01T17:18:10.076Z,15.50
2022-11-01T17:20:41.452Z,15.50
2022-11-01T17:23:15.664Z,15.40
2022-11-01T17:28:14.519Z,15.40
2022-11-01T17:33:11.657Z,15.40
2022-11-01T17:38:18.182Z,15.40
2022-11-01T17:43:17.546Z,15.30
2022-11-01T17:53:15.636Z,15.30
2022-11-01T17:55:44.219Z,15.30
2022-11-01T17:58:13.392Z,15.30
2022-11-01T18:00:43.226Z,15.30
2022-11-01T18:05:43.461Z,15.30
2022-11-01T18:08:18.260Z,15.20
2022-11-01T18:10:55.764Z,15.20
2022-11-01T18:13:38.915Z,15.20
2022-11-01T18:16:17.399Z,15.20
2022-11-01T18:19:16.416Z,15.20
2022-11-01T18:22:00.324Z,15.20
2022-11-01T18:24:37.208Z,15.10
2022-11-01T18:27:11.780Z,15.20
2022-11-01T18:29:44.492Z,15.10
2022-11-01T18:32:20.009Z,15.00
2022-11-01T18:34:53.587Z,15.00
2022-11-01T18:37:30.589Z,14.90
2022-11-01T18:40:08.022Z,14.80
2022-11-01T18:45:19.370Z,14.70
2022-11-01T18:47:52.932Z,14.70
2022-11-01T18:50:26.239Z,14.70
2022-11-01T18:53:03.169Z,14.60
2022-11-01T18:55:35.396Z,14.60
2022-11-01T18:58:14.168Z,14.70
2022-11-01T19:03:21.771Z,14.60
2022-11-01T19:05:54.395Z,14.50
2022-11-01T19:08:26.002Z,14.60
2022-11-01T19:13:34.531Z,14.60
2022-11-01T19:16:04.441Z,14.60
2022-11-01T19:21:01.880Z,14.60
2022-11-01T19:23:37.724Z,14.50
2022-11-01T19:26:20.403Z,14.50
2022-11-01T19:31:32.382Z,14.50
2022-11-01T19:34:04.007Z,14.40
2022-11-01T19:39:23.185Z,14.30
2022-11-01T19:44:44.677Z,14.20
2022-11-01T19:47:36.076Z,14.10
2022-11-01T19:50:27.367Z,14.10
2022-11-01T19:53:01.537Z,14.00
2022-11-01T19:55:39.580Z,14.00
2022-11-01T19:58:43.846Z,14.00
2022-11-01T20:01:46.422Z,14.00
2022-11-01T20:04:27.206Z,14.00
2022-11-01T20:07:01.340Z,13.80
2022-11-01T20:09:32.954Z,13.70
2022-11-01T20:12:01.638Z,13.70
2022-11-01T20:14:33.864Z,13.70
2022-11-01T20:17:08.127Z,13.40
2022-11-01T20:19:37.023Z,13.50
2022-11-01T20:24:35.403Z,13.70
2022-11-01T20:27:06.240Z,13.70
2022-11-01T20:29:38.298Z,13.60
2022-11-01T20:34:36.721Z,13.60
2022-11-01T20:37:27.381Z,13.40
2022-11-01T20:42:22.915Z,13.50
2022-11-01T20:49:54.290Z,13.30
2022-11-01T20:52:39.953Z,13.20
2022-11-01T20:57:41.447Z,13.30
2022-11-01T21:00:18.562Z,13.30
2022-11-01T21:02:47.543Z,13.30
2022-11-01T21:05:25.275Z,13.30
2022-11-01T21:07:58.447Z,13.20
2022-11-01T21:10:36.541Z,13.30
2022-11-01T21:13:21.357Z,13.20
2022-11-01T21:15:53.047Z,13.20
2022-11-01T21:18:44.264Z,13.20
2022-11-01T21:21:35.083Z,13.10
2022-11-01T21:24:31.379Z,13.10
2022-11-01T21:27:18.412Z,12.00
2022-11-01T21:29:49.153Z,13.00
2022-11-01T21:32:30.268Z,13.00
2022-11-01T21:34:59.258Z,13.00
2022-11-01T21:37:30.377Z,13.00
2022-11-01T21:40:05.955Z,13.00
2022-11-01T21:42:37.468Z,12.90
2022-11-01T21:45:30.404Z,12.90
2022-11-01T21:48:04.160Z,12.90
2022-11-01T21:50:32.708Z,11.80
2022-11-01T22:00:26.979Z,13.20
2022-11-01T22:05:25.451Z,12.70
2022-11-01T22:10:22.458Z,12.50
2022-11-01T22:15:19.243Z,12.50
2022-11-01T22:20:16.078Z,12.40
2022-11-01T22:22:45.947Z,12.40
2022-11-01T22:30:13.785Z,12.20
2022-11-01T22:35:12.127Z,12.10
2022-11-01T22:42:44.532Z,12.00
2022-11-01T22:45:18.330Z,12.00
2022-11-01T22:47:48.016Z,12.00
2022-11-01T22:50:29.149Z,12.00
2022-11-01T22:55:30.779Z,12.20
2022-11-01T22:58:02.255Z,12.10
2022-11-01T23:00:33.393Z,12.10
2022-11-01T23:03:04.095Z,12.20
2022-11-01T23:05:32.510Z,12.20
2022-11-01T23:08:11.381Z,12.20
2022-11-01T23:13:34.689Z,12.30
2022-11-01T23:16:04.669Z,12.20
2022-11-01T23:18:34.771Z,12.20
2022-11-01T23:21:06.790Z,12.20
2022-11-01T23:23:37.486Z,12.20
2022-11-01T23:26:07.442Z,12.20
2022-11-01T23:31:06.859Z,12.30
2022-11-01T23:33:38.801Z,12.20
2022-11-01T23:36:14.726Z,12.30
2022-11-01T23:38:49.632Z,12.30
2022-11-01T23:41:24.102Z,12.30
2022-11-01T23:46:22.929Z,12.20
2022-11-01T23:51:28.635Z,12.20
2022-11-01T23:53:58.283Z,12.30
2022-11-01T23:59:03.980Z,12.20
